sensor_id;sensor_type;location;lat;lon;timestamp;temperature;humidity
68719;DHT22;55696;52.138;5.444;2023-02-04T00:00:04;12.30;63.20
68719;DHT22;55696;52.138;5.444;2023-02-04T00:02:33;12.30;64.10
68719;DHT22;55696;52.138;5.444;2023-02-04T00:05:00;12.30;63.30
68719;DHT22;55696;52.138;5.444;2023-02-04T00:07:26;12.50;63.10
68719;DHT22;55696;52.138;5.444;2023-02-04T00:09:53;12.40;63.00
68719;DHT22;55696;52.138;5.444;2023-02-04T00:12:20;12.40;63.10
68719;DHT22;55696;52.138;5.444;2023-02-04T00:14:47;12.40;63.20
68719;DHT22;55696;52.138;5.444;2023-02-04T00:17:14;12.40;62.90
68719;DHT22;55696;52.138;5.444;2023-02-04T00:19:41;12.30;63.10
68719;DHT22;55696;52.138;5.444;2023-02-04T00:22:08;12.30;63.70
68719;DHT22;55696;52.138;5.444;2023-02-04T00:24:36;12.30;63.70
68719;DHT22;55696;52.138;5.444;2023-02-04T00:27:04;12.30;64.00
68719;DHT22;55696;52.138;5.444;2023-02-04T00:29:31;12.40;64.40
68719;DHT22;55696;52.138;5.444;2023-02-04T00:31:58;12.30;63.40
68719;DHT22;55696;52.138;5.444;2023-02-04T00:34:26;12.30;63.60
68719;DHT22;55696;52.138;5.444;2023-02-04T00:36:53;12.30;63.60
68719;DHT22;55696;52.138;5.444;2023-02-04T00:39:19;12.40;63.60
68719;DHT22;55696;52.138;5.444;2023-02-04T00:41:46;12.40;63.50
68719;DHT22;55696;52.138;5.444;2023-02-04T00:44:13;12.30;63.60
68719;DHT22;55696;52.138;5.444;2023-02-04T00:46:41;12.40;63.90
68719;DHT22;55696;52.138;5.444;2023-02-04T00:49:09;12.40;64.50
68719;DHT22;55696;52.138;5.444;2023-02-04T00:51:40;12.30;64.30
68719;DHT22;55696;52.138;5.444;2023-02-04T00:54:10;12.30;64.40
68719;DHT22;55696;52.138;5.444;2023-02-04T00:56:37;12.20;64.20
68719;DHT22;55696;52.138;5.444;2023-02-04T00:59:03;12.10;64.70
68719;DHT22;55696;52.138;5.444;2023-02-04T01:01:30;11.90;64.60
68719;DHT22;55696;52.138;5.444;2023-02-04T01:03:57;12.00;65.00
68719;DHT22;55696;52.138;5.444;2023-02-04T01:06:24;11.90;65.20
68719;DHT22;55696;52.138;5.444;2023-02-04T01:08:51;11.90;65.60
68719;DHT22;55696;52.138;5.444;2023-02-04T01:11:18;11.90;65.90
68719;DHT22;55696;52.138;5.444;2023-02-04T01:13:45;12.20;66.50
68719;DHT22;55696;52.138;5.444;2023-02-04T01:16:12;11.70;66.00
68719;DHT22;55696;52.138;5.444;2023-02-04T01:18:39;11.70;66.20
68719;DHT22;55696;52.138;5.444;2023-02-04T01:21:06;11.80;66.30
68719;DHT22;55696;52.138;5.444;2023-02-04T01:23:33;11.80;66.50
68719;DHT22;55696;52.138;5.444;2023-02-04T01:25:59;11.70;66.40
68719;DHT22;55696;52.138;5.444;2023-02-04T01:28:26;11.70;66.40
68719;DHT22;55696;52.138;5.444;2023-02-04T01:30:53;11.80;66.70
68719;DHT22;55696;52.138;5.444;2023-02-04T01:33:20;11.80;66.60
68719;DHT22;55696;52.138;5.444;2023-02-04T01:35:49;11.70;67.20
68719;DHT22;55696;52.138;5.444;2023-02-04T01:38:16;12.30;67.30
68719;DHT22;55696;52.138;5.444;2023-02-04T01:40:42;12.10;67.20
68719;DHT22;55696;52.138;5.444;2023-02-04T01:43:10;11.70;67.20
68719;DHT22;55696;52.138;5.444;2023-02-04T01:45:37;11.70;68.20
68719;DHT22;55696;52.138;5.444;2023-02-04T01:48:05;11.60;67.30
68719;DHT22;55696;52.138;5.444;2023-02-04T01:50:33;11.70;68.10
68719;DHT22;55696;52.138;5.444;2023-02-04T01:53:00;11.70;68.20
68719;DHT22;55696;52.138;5.444;2023-02-04T01:55:30;11.60;67.50
68719;DHT22;55696;52.138;5.444;2023-02-04T01:57:58;11.70;69.00
68719;DHT22;55696;52.138;5.444;2023-02-04T02:00:28;11.80;67.80
68719;DHT22;55696;52.138;5.444;2023-02-04T02:02:56;11.70;68.90
68719;DHT22;55696;52.138;5.444;2023-02-04T02:05:27;11.70;68.00
68719;DHT22;55696;52.138;5.444;2023-02-04T02:07:58;11.70;69.40
68719;DHT22;55696;52.138;5.444;2023-02-04T02:10:26;11.70;69.00
68719;DHT22;55696;52.138;5.444;2023-02-04T02:12:54;11.70;68.10
68719;DHT22;55696;52.138;5.444;2023-02-04T02:15:21;11.70;68.30
68719;DHT22;55696;52.138;5.444;2023-02-04T02:17:49;11.70;68.20
68719;DHT22;55696;52.138;5.444;2023-02-04T02:20:17;12.60;68.90
68719;DHT22;55696;52.138;5.444;2023-02-04T02:22:54;11.80;69.30
68719;DHT22;55696;52.138;5.444;2023-02-04T02:25:22;11.70;70.30
68719;DHT22;55696;52.138;5.444;2023-02-04T02:27:49;11.80;68.50
68719;DHT22;55696;52.138;5.444;2023-02-04T02:30:17;11.80;68.20
68719;DHT22;55696;52.138;5.444;2023-02-04T02:32:46;11.70;69.20
68719;DHT22;55696;52.138;5.444;2023-02-04T02:35:13;11.70;69.40
68719;DHT22;55696;52.138;5.444;2023-02-04T02:37:40;11.60;69.00
68719;DHT22;55696;52.138;5.444;2023-02-04T02:40:08;11.60;68.80
68719;DHT22;55696;52.138;5.444;2023-02-04T02:42:35;11.70;69.30
68719;DHT22;55696;52.138;5.444;2023-02-04T02:45:26;11.60;69.30
68719;DHT22;55696;52.138;5.444;2023-02-04T02:47:56;11.60;71.50
68719;DHT22;55696;52.138;5.444;2023-02-04T02:50:26;11.50;70.50
68719;DHT22;55696;52.138;5.444;2023-02-04T02:52:55;11.40;70.70
68719;DHT22;55696;52.138;5.444;2023-02-04T02:55:24;11.30;69.70
68719;DHT22;55696;52.138;5.444;2023-02-04T02:57:52;11.20;71.30
68719;DHT22;55696;52.138;5.444;2023-02-04T03:00:23;11.10;70.80
68719;DHT22;55696;52.138;5.444;2023-02-04T03:03:06;11.00;71.80
68719;DHT22;55696;52.138;5.444;2023-02-04T03:05:39;11.10;72.00
68719;DHT22;55696;52.138;5.444;2023-02-04T03:08:10;11.00;72.30
68719;DHT22;55696;52.138;5.444;2023-02-04T03:10:37;10.80;72.10
68719;DHT22;55696;52.138;5.444;2023-02-04T03:13:04;10.80;71.30
68719;DHT22;55696;52.138;5.444;2023-02-04T03:15:31;10.80;70.90
68719;DHT22;55696;52.138;5.444;2023-02-04T03:17:59;10.80;71.50
68719;DHT22;55696;52.138;5.444;2023-02-04T03:20:28;10.70;71.90
68719;DHT22;55696;52.138;5.444;2023-02-04T03:22:57;10.80;72.60
68719;DHT22;55696;52.138;5.444;2023-02-04T03:25:25;10.80;71.80
68719;DHT22;55696;52.138;5.444;2023-02-04T03:27:59;10.70;72.10
68719;DHT22;55696;52.138;5.444;2023-02-04T03:30:26;10.70;73.60
68719;DHT22;55696;52.138;5.444;2023-02-04T03:32:53;10.70;72.20
68719;DHT22;55696;52.138;5.444;2023-02-04T03:35:20;10.60;71.90
68719;DHT22;55696;52.138;5.444;2023-02-04T03:37:47;10.70;72.30
68719;DHT22;55696;52.138;5.444;2023-02-04T03:40:14;10.60;72.20
68719;DHT22;55696;52.138;5.444;2023-02-04T03:42:41;10.70;73.20
68719;DHT22;55696;52.138;5.444;2023-02-04T03:45:08;10.50;72.00
68719;DHT22;55696;52.138;5.444;2023-02-04T03:47:35;10.50;72.40
68719;DHT22;55696;52.138;5.444;2023-02-04T03:50:02;10.50;72.30
68719;DHT22;55696;52.138;5.444;2023-02-04T03:52:29;10.50;72.70
68719;DHT22;55696;52.138;5.444;2023-02-04T03:54:56;10.40;72.50
68719;DHT22;55696;52.138;5.444;2023-02-04T03:57:23;10.40;72.40
68719;DHT22;55696;52.138;5.444;2023-02-04T03:59:50;10.40;72.50
68719;DHT22;55696;52.138;5.444;2023-02-04T04:02:16;10.30;72.40
68719;DHT22;55696;52.138;5.444;2023-02-04T04:04:43;10.40;72.50
68719;DHT22;55696;52.138;5.444;2023-02-04T04:07:10;10.40;72.50
68719;DHT22;55696;52.138;5.444;2023-02-04T04:09:36;11.00;72.90
68719;DHT22;55696;52.138;5.444;2023-02-04T04:12:03;10.50;72.60
68719;DHT22;55696;52.138;5.444;2023-02-04T04:14:30;10.50;72.50
68719;DHT22;55696;52.138;5.444;2023-02-04T04:16:57;11.20;72.60
68719;DHT22;55696;52.138;5.444;2023-02-04T04:19:24;10.50;72.20
68719;DHT22;55696;52.138;5.444;2023-02-04T04:21:50;10.50;72.10
68719;DHT22;55696;52.138;5.444;2023-02-04T04:24:17;10.50;72.10
68719;DHT22;55696;52.138;5.444;2023-02-04T04:26:44;10.50;72.20
68719;DHT22;55696;52.138;5.444;2023-02-04T04:29:11;10.50;72.20
68719;DHT22;55696;52.138;5.444;2023-02-04T04:31:37;10.50;72.10
68719;DHT22;55696;52.138;5.444;2023-02-04T04:34:04;10.60;72.20
68719;DHT22;55696;52.138;5.444;2023-02-04T04:36:31;10.50;72.10
68719;DHT22;55696;52.138;5.444;2023-02-04T04:38:58;10.60;72.20
68719;DHT22;55696;52.138;5.444;2023-02-04T04:41:25;10.60;72.20
68719;DHT22;55696;52.138;5.444;2023-02-04T04:43:52;10.70;72.30
68719;DHT22;55696;52.138;5.444;2023-02-04T04:46:18;10.60;72.20
68719;DHT22;55696;52.138;5.444;2023-02-04T04:48:45;10.70;72.20
68719;DHT22;55696;52.138;5.444;2023-02-04T04:51:12;10.70;72.30
68719;DHT22;55696;52.138;5.444;2023-02-04T04:53:39;10.70;72.30
68719;DHT22;55696;52.138;5.444;2023-02-04T04:56:06;10.70;72.20
68719;DHT22;55696;52.138;5.444;2023-02-04T04:58:33;10.60;72.30
68719;DHT22;55696;52.138;5.444;2023-02-04T05:00:59;10.70;72.40
68719;DHT22;55696;52.138;5.444;2023-02-04T05:03:26;10.70;72.40
68719;DHT22;55696;52.138;5.444;2023-02-04T05:05:53;10.70;72.40
68719;DHT22;55696;52.138;5.444;2023-02-04T05:08:20;10.70;72.60
68719;DHT22;55696;52.138;5.444;2023-02-04T05:10:47;10.60;72.40
68719;DHT22;55696;52.138;5.444;2023-02-04T05:13:14;10.60;72.60
68719;DHT22;55696;52.138;5.444;2023-02-04T05:15:41;10.60;72.30
68719;DHT22;55696;52.138;5.444;2023-02-04T05:18:08;10.60;72.20
68719;DHT22;55696;52.138;5.444;2023-02-04T05:20:35;10.40;72.30
68719;DHT22;55696;52.138;5.444;2023-02-04T05:23:02;10.70;72.40
68719;DHT22;55696;52.138;5.444;2023-02-04T05:25:31;10.40;72.70
68719;DHT22;55696;52.138;5.444;2023-02-04T05:27:58;10.50;72.70
68719;DHT22;55696;52.138;5.444;2023-02-04T05:30:25;10.50;72.70
68719;DHT22;55696;52.138;5.444;2023-02-04T05:32:51;10.50;72.60
68719;DHT22;55696;52.138;5.444;2023-02-04T05:35:18;10.40;72.50
68719;DHT22;55696;52.138;5.444;2023-02-04T05:37:45;10.50;72.90
68719;DHT22;55696;52.138;5.444;2023-02-04T05:40:12;10.50;72.80
68719;DHT22;55696;52.138;5.444;2023-02-04T05:42:39;10.50;72.60
68719;DHT22;55696;52.138;5.444;2023-02-04T05:45:14;10.50;72.50
68719;DHT22;55696;52.138;5.444;2023-02-04T05:47:41;10.40;74.60
68719;DHT22;55696;52.138;5.444;2023-02-04T05:50:08;10.40;72.90
68719;DHT22;55696;52.138;5.444;2023-02-04T05:52:35;10.40;72.80
68719;DHT22;55696;52.138;5.444;2023-02-04T05:55:02;10.30;72.60
68719;DHT22;55696;52.138;5.444;2023-02-04T05:57:28;10.30;72.90
68719;DHT22;55696;52.138;5.444;2023-02-04T05:59:55;10.40;72.90
68719;DHT22;55696;52.138;5.444;2023-02-04T06:02:22;10.40;72.90
68719;DHT22;55696;52.138;5.444;2023-02-04T06:04:49;10.40;72.70
68719;DHT22;55696;52.138;5.444;2023-02-04T06:07:16;10.80;73.00
68719;DHT22;55696;52.138;5.444;2023-02-04T06:09:42;10.30;72.60
68719;DHT22;55696;52.138;5.444;2023-02-04T06:12:10;10.40;72.70
68719;DHT22;55696;52.138;5.444;2023-02-04T06:14:37;10.40;72.70
68719;DHT22;55696;52.138;5.444;2023-02-04T06:17:03;10.40;73.00
68719;DHT22;55696;52.138;5.444;2023-02-04T06:19:30;10.40;72.90
68719;DHT22;55696;52.138;5.444;2023-02-04T06:21:57;10.40;72.80
68719;DHT22;55696;52.138;5.444;2023-02-04T06:24:24;10.50;72.70
68719;DHT22;55696;52.138;5.444;2023-02-04T06:26:50;10.50;72.60
68719;DHT22;55696;52.138;5.444;2023-02-04T06:29:17;10.50;72.60
68719;DHT22;55696;52.138;5.444;2023-02-04T06:31:44;10.50;72.70
68719;DHT22;55696;52.138;5.444;2023-02-04T06:34:11;10.50;72.70
68719;DHT22;55696;52.138;5.444;2023-02-04T06:36:38;10.40;72.70
68719;DHT22;55696;52.138;5.444;2023-02-04T06:39:04;10.50;72.70
68719;DHT22;55696;52.138;5.444;2023-02-04T06:41:31;11.10;73.00
68719;DHT22;55696;52.138;5.444;2023-02-04T06:43:58;10.60;72.70
68719;DHT22;55696;52.138;5.444;2023-02-04T06:46:24;10.50;72.80
68719;DHT22;55696;52.138;5.444;2023-02-04T06:48:51;10.50;72.90
68719;DHT22;55696;52.138;5.444;2023-02-04T06:51:18;10.50;72.90
68719;DHT22;55696;52.138;5.444;2023-02-04T06:53:45;10.50;72.90
68719;DHT22;55696;52.138;5.444;2023-02-04T06:56:11;10.50;72.90
68719;DHT22;55696;52.138;5.444;2023-02-04T06:58:38;10.60;73.20
68719;DHT22;55696;52.138;5.444;2023-02-04T07:01:05;10.60;73.20
68719;DHT22;55696;52.138;5.444;2023-02-04T07:03:32;10.50;72.90
68719;DHT22;55696;52.138;5.444;2023-02-04T07:05:59;11.50;73.10
68719;DHT22;55696;52.138;5.444;2023-02-04T07:08:25;10.60;72.70
68719;DHT22;55696;52.138;5.444;2023-02-04T07:10:52;10.50;72.80
68719;DHT22;55696;52.138;5.444;2023-02-04T07:13:19;10.60;72.90
68719;DHT22;55696;52.138;5.444;2023-02-04T07:15:46;11.60;73.50
68719;DHT22;55696;52.138;5.444;2023-02-04T07:18:12;11.40;73.20
68719;DHT22;55696;52.138;5.444;2023-02-04T07:20:39;10.80;72.70
68719;DHT22;55696;52.138;5.444;2023-02-04T07:23:06;10.80;72.50
68719;DHT22;55696;52.138;5.444;2023-02-04T07:25:32;11.70;72.90
68719;DHT22;55696;52.138;5.444;2023-02-04T07:27:59;10.80;72.40
68719;DHT22;55696;52.138;5.444;2023-02-04T07:30:27;10.80;72.60
68719;DHT22;55696;52.138;5.444;2023-02-04T07:32:54;10.70;72.90
68719;DHT22;55696;52.138;5.444;2023-02-04T07:35:21;10.70;73.00
68719;DHT22;55696;52.138;5.444;2023-02-04T07:37:48;10.70;72.70
68719;DHT22;55696;52.138;5.444;2023-02-04T07:40:15;10.70;72.80
68719;DHT22;55696;52.138;5.444;2023-02-04T07:42:43;10.70;73.10
68719;DHT22;55696;52.138;5.444;2023-02-04T07:45:15;10.60;72.80
68719;DHT22;55696;52.138;5.444;2023-02-04T07:47:42;11.30;73.30
68719;DHT22;55696;52.138;5.444;2023-02-04T07:50:09;10.70;72.90
68719;DHT22;55696;52.138;5.444;2023-02-04T07:52:35;10.70;73.20
68719;DHT22;55696;52.138;5.444;2023-02-04T07:55:02;10.70;72.90
68719;DHT22;55696;52.138;5.444;2023-02-04T07:57:30;10.80;73.00
68719;DHT22;55696;52.138;5.444;2023-02-04T07:59:56;10.80;73.30
68719;DHT22;55696;52.138;5.444;2023-02-04T08:02:23;10.80;72.90
68719;DHT22;55696;52.138;5.444;2023-02-04T08:04:50;10.80;72.80
68719;DHT22;55696;52.138;5.444;2023-02-04T08:07:17;10.90;72.70
68719;DHT22;55696;52.138;5.444;2023-02-04T08:09:44;10.90;73.00
68719;DHT22;55696;52.138;5.444;2023-02-04T08:12:12;10.80;72.60
68719;DHT22;55696;52.138;5.444;2023-02-04T08:14:39;10.90;72.60
68719;DHT22;55696;52.138;5.444;2023-02-04T08:17:05;11.00;72.60
68719;DHT22;55696;52.138;5.444;2023-02-04T08:19:32;11.00;72.80
68719;DHT22;55696;52.138;5.444;2023-02-04T08:21:59;11.10;72.80
68719;DHT22;55696;52.138;5.444;2023-02-04T08:24:26;11.10;72.70
68719;DHT22;55696;52.138;5.444;2023-02-04T08:26:52;11.10;72.60
68719;DHT22;55696;52.138;5.444;2023-02-04T08:29:19;11.20;72.50
68719;DHT22;55696;52.138;5.444;2023-02-04T08:31:46;11.20;72.40
68719;DHT22;55696;52.138;5.444;2023-02-04T08:34:13;11.20;72.30
68719;DHT22;55696;52.138;5.444;2023-02-04T08:36:40;11.30;72.30
68719;DHT22;55696;52.138;5.444;2023-02-04T08:39:07;11.30;72.10
68719;DHT22;55696;52.138;5.444;2023-02-04T08:41:33;11.30;72.00
68719;DHT22;55696;52.138;5.444;2023-02-04T08:44:00;11.50;72.00
68719;DHT22;55696;52.138;5.444;2023-02-04T08:46:27;11.40;71.90
68719;DHT22;55696;52.138;5.444;2023-02-04T08:48:54;11.40;71.80
68719;DHT22;55696;52.138;5.444;2023-02-04T08:51:21;11.50;71.90
68719;DHT22;55696;52.138;5.444;2023-02-04T08:53:48;11.60;71.50
68719;DHT22;55696;52.138;5.444;2023-02-04T08:56:15;11.70;71.30
68719;DHT22;55696;52.138;5.444;2023-02-04T08:58:43;11.80;71.40
68719;DHT22;55696;52.138;5.444;2023-02-04T09:01:10;11.80;71.60
68719;DHT22;55696;52.138;5.444;2023-02-04T09:03:38;12.70;71.60
68719;DHT22;55696;52.138;5.444;2023-02-04T09:06:05;11.80;70.90
68719;DHT22;55696;52.138;5.444;2023-02-04T09:08:32;11.80;71.80
68719;DHT22;55696;52.138;5.444;2023-02-04T09:10:59;11.90;71.00
68719;DHT22;55696;52.138;5.444;2023-02-04T09:13:26;11.90;70.60
68719;DHT22;55696;52.138;5.444;2023-02-04T09:15:53;12.10;70.80
68719;DHT22;55696;52.138;5.444;2023-02-04T09:18:21;12.00;70.60
68719;DHT22;55696;52.138;5.444;2023-02-04T09:20:51;12.10;70.80
68719;DHT22;55696;52.138;5.444;2023-02-04T09:23:18;12.20;71.40
68719;DHT22;55696;52.138;5.444;2023-02-04T09:25:45;12.10;70.40
68719;DHT22;55696;52.138;5.444;2023-02-04T09:28:12;12.20;70.30
68719;DHT22;55696;52.138;5.444;2023-02-04T09:30:41;12.20;70.60
68719;DHT22;55696;52.138;5.444;2023-02-04T09:33:09;12.30;70.70
68719;DHT22;55696;52.138;5.444;2023-02-04T09:35:37;12.50;71.00
68719;DHT22;55696;52.138;5.444;2023-02-04T09:38:04;12.40;70.20
68719;DHT22;55696;52.138;5.444;2023-02-04T09:40:35;12.20;69.80
68719;DHT22;55696;52.138;5.444;2023-02-04T09:43:03;12.20;71.60
68719;DHT22;55696;52.138;5.444;2023-02-04T09:45:33;12.10;71.20
68719;DHT22;55696;52.138;5.444;2023-02-04T09:48:02;12.20;71.60
68719;DHT22;55696;52.138;5.444;2023-02-04T09:50:30;12.70;71.70
68719;DHT22;55696;52.138;5.444;2023-02-04T09:53:01;12.30;70.80
68719;DHT22;55696;52.138;5.444;2023-02-04T09:55:34;12.30;71.50
68719;DHT22;55696;52.138;5.444;2023-02-04T09:58:09;12.30;70.90
68719;DHT22;55696;52.138;5.444;2023-02-04T10:00:37;12.30;71.40
68719;DHT22;55696;52.138;5.444;2023-02-04T10:03:15;12.50;69.50
68719;DHT22;55696;52.138;5.444;2023-02-04T10:05:44;12.80;70.60
68719;DHT22;55696;52.138;5.444;2023-02-04T10:08:32;12.80;69.40
68719;DHT22;55696;52.138;5.444;2023-02-04T10:10:59;12.90;70.10
68719;DHT22;55696;52.138;5.444;2023-02-04T10:13:31;13.00;67.50
68719;DHT22;55696;52.138;5.444;2023-02-04T10:16:00;13.00;68.90
68719;DHT22;55696;52.138;5.444;2023-02-04T10:18:31;13.10;67.90
68719;DHT22;55696;52.138;5.444;2023-02-04T10:21:18;13.10;68.60
68719;DHT22;55696;52.138;5.444;2023-02-04T10:23:49;13.10;68.10
68719;DHT22;55696;52.138;5.444;2023-02-04T10:26:23;13.90;68.10
68719;DHT22;55696;52.138;5.444;2023-02-04T10:28:57;14.10;67.30
68719;DHT22;55696;52.138;5.444;2023-02-04T10:31:32;13.30;67.90
68719;DHT22;55696;52.138;5.444;2023-02-04T10:36:47;13.40;67.50
68719;DHT22;55696;52.138;5.444;2023-02-04T10:39:18;13.40;66.80
68719;DHT22;55696;52.138;5.444;2023-02-04T10:41:56;13.50;65.50
68719;DHT22;55696;52.138;5.444;2023-02-04T10:44:30;13.50;66.60
68719;DHT22;55696;52.138;5.444;2023-02-04T10:47:05;13.50;66.10
68719;DHT22;55696;52.138;5.444;2023-02-04T10:49:32;13.90;67.00
68719;DHT22;55696;52.138;5.444;2023-02-04T10:52:00;13.60;65.40
68719;DHT22;55696;52.138;5.444;2023-02-04T10:54:34;13.40;65.40
68719;DHT22;55696;52.138;5.444;2023-02-04T10:57:25;13.70;65.90
68719;DHT22;55696;52.138;5.444;2023-02-04T11:00:00;13.60;66.00
68719;DHT22;55696;52.138;5.444;2023-02-04T11:02:44;13.60;66.20
68719;DHT22;55696;52.138;5.444;2023-02-04T11:05:19;13.70;65.50
68719;DHT22;55696;52.138;5.444;2023-02-04T11:07:47;13.70;64.70
68719;DHT22;55696;52.138;5.444;2023-02-04T11:10:20;13.70;64.70
68719;DHT22;55696;52.138;5.444;2023-02-04T11:18:08;13.70;66.00
68719;DHT22;55696;52.138;5.444;2023-02-04T11:20:37;13.50;65.40
68719;DHT22;55696;52.138;5.444;2023-02-04T11:26:31;13.30;66.50
68719;DHT22;55696;52.138;5.444;2023-02-04T11:39:35;13.50;65.50
68719;DHT22;55696;52.138;5.444;2023-02-04T11:42:17;13.40;65.80
68719;DHT22;55696;52.138;5.444;2023-02-04T11:44:50;13.50;65.30
68719;DHT22;55696;52.138;5.444;2023-02-04T11:47:17;13.50;65.10
68719;DHT22;55696;52.138;5.444;2023-02-04T11:49:47;13.60;63.20
68719;DHT22;55696;52.138;5.444;2023-02-04T11:52:19;13.60;64.20
68719;DHT22;55696;52.138;5.444;2023-02-04T11:54:54;13.70;63.80
68719;DHT22;55696;52.138;5.444;2023-02-04T11:57:21;13.70;64.20
68719;DHT22;55696;52.138;5.444;2023-02-04T11:59:48;13.80;61.90
68719;DHT22;55696;52.138;5.444;2023-02-04T12:02:20;14.00;61.60
68719;DHT22;55696;52.138;5.444;2023-02-04T12:05:14;14.10;62.80
68719;DHT22;55696;52.138;5.444;2023-02-04T12:07:43;14.40;62.40
68719;DHT22;55696;52.138;5.444;2023-02-04T12:10:21;14.50;60.90
68719;DHT22;55696;52.138;5.444;2023-02-04T12:12:52;14.80;60.30
68719;DHT22;55696;52.138;5.444;2023-02-04T12:15:23;14.80;60.20
68719;DHT22;55696;52.138;5.444;2023-02-04T12:18:06;14.90;59.80
68719;DHT22;55696;52.138;5.444;2023-02-04T12:20:34;15.10;59.90
68719;DHT22;55696;52.138;5.444;2023-02-04T12:23:02;14.90;58.80
68719;DHT22;55696;52.138;5.444;2023-02-04T12:25:29;15.00;58.60
68719;DHT22;55696;52.138;5.444;2023-02-04T12:27:56;15.10;58.40
68719;DHT22;55696;52.138;5.444;2023-02-04T12:30:24;14.90;58.20
68719;DHT22;55696;52.138;5.444;2023-02-04T12:32:51;14.90;58.80
68719;DHT22;55696;52.138;5.444;2023-02-04T12:35:18;15.50;58.40
68719;DHT22;55696;52.138;5.444;2023-02-04T12:37:45;14.60;58.20
68719;DHT22;55696;52.138;5.444;2023-02-04T12:40:16;14.60;58.40
68719;DHT22;55696;52.138;5.444;2023-02-04T12:42:44;14.70;60.10
68719;DHT22;55696;52.138;5.444;2023-02-04T12:45:12;14.60;58.20
68719;DHT22;55696;52.138;5.444;2023-02-04T12:47:40;14.80;58.50
68719;DHT22;55696;52.138;5.444;2023-02-04T12:50:09;14.70;58.00
68719;DHT22;55696;52.138;5.444;2023-02-04T12:52:36;14.70;58.10
68719;DHT22;55696;52.138;5.444;2023-02-04T12:55:06;14.50;57.20
68719;DHT22;55696;52.138;5.444;2023-02-04T12:57:34;14.60;58.40
68719;DHT22;55696;52.138;5.444;2023-02-04T13:00:01;14.60;58.10
68719;DHT22;55696;52.138;5.444;2023-02-04T13:02:28;15.30;58.10
68719;DHT22;55696;52.138;5.444;2023-02-04T13:04:55;15.50;58.40
68719;DHT22;55696;52.138;5.444;2023-02-04T13:07:22;14.70;57.50
68719;DHT22;55696;52.138;5.444;2023-02-04T13:09:49;14.80;57.20
68719;DHT22;55696;52.138;5.444;2023-02-04T13:12:15;14.80;57.00
68719;DHT22;55696;52.138;5.444;2023-02-04T13:14:43;14.90;56.50
68719;DHT22;55696;52.138;5.444;2023-02-04T13:17:09;14.80;57.20
68719;DHT22;55696;52.138;5.444;2023-02-04T13:19:36;15.60;57.30
68719;DHT22;55696;52.138;5.444;2023-02-04T13:22:03;14.70;56.80
68719;DHT22;55696;52.138;5.444;2023-02-04T13:24:30;14.60;57.10
68719;DHT22;55696;52.138;5.444;2023-02-04T13:26:57;14.50;57.20
68719;DHT22;55696;52.138;5.444;2023-02-04T13:29:24;14.50;58.70
68719;DHT22;55696;52.138;5.444;2023-02-04T13:31:51;14.50;57.50
68719;DHT22;55696;52.138;5.444;2023-02-04T13:34:18;14.20;57.70
68719;DHT22;55696;52.138;5.444;2023-02-04T13:36:45;14.20;58.60
68719;DHT22;55696;52.138;5.444;2023-02-04T13:39:12;14.20;58.60
68719;DHT22;55696;52.138;5.444;2023-02-04T13:41:38;14.10;58.50
68719;DHT22;55696;52.138;5.444;2023-02-04T13:44:06;14.10;58.70
68719;DHT22;55696;52.138;5.444;2023-02-04T13:46:33;14.00;58.90
68719;DHT22;55696;52.138;5.444;2023-02-04T13:49:00;14.60;59.60
68719;DHT22;55696;52.138;5.444;2023-02-04T13:51:26;13.90;59.10
68719;DHT22;55696;52.138;5.444;2023-02-04T13:53:53;13.90;59.20
68719;DHT22;55696;52.138;5.444;2023-02-04T13:56:20;14.00;59.10
68719;DHT22;55696;52.138;5.444;2023-02-04T13:58:47;15.10;59.60
68719;DHT22;55696;52.138;5.444;2023-02-04T14:01:14;14.20;58.80
68719;DHT22;55696;52.138;5.444;2023-02-04T14:03:41;14.10;58.80
68719;DHT22;55696;52.138;5.444;2023-02-04T14:06:08;14.10;59.00
68719;DHT22;55696;52.138;5.444;2023-02-04T14:08:35;14.20;59.20
68719;DHT22;55696;52.138;5.444;2023-02-04T14:11:02;14.10;58.80
68719;DHT22;55696;52.138;5.444;2023-02-04T14:13:29;14.10;58.80
68719;DHT22;55696;52.138;5.444;2023-02-04T14:15:56;13.90;58.90
68719;DHT22;55696;52.138;5.444;2023-02-04T14:18:23;15.00;59.70
68719;DHT22;55696;52.138;5.444;2023-02-04T14:20:49;14.40;59.30
68719;DHT22;55696;52.138;5.444;2023-02-04T14:23:16;14.20;59.10
68719;DHT22;55696;52.138;5.444;2023-02-04T14:25:43;14.10;58.90
68719;DHT22;55696;52.138;5.444;2023-02-04T14:28:10;14.10;58.60
68719;DHT22;55696;52.138;5.444;2023-02-04T14:30:37;14.20;58.60
68719;DHT22;55696;52.138;5.444;2023-02-04T14:33:04;14.20;58.50
68719;DHT22;55696;52.138;5.444;2023-02-04T14:35:31;14.30;58.50
68719;DHT22;55696;52.138;5.444;2023-02-04T14:37:57;14.20;58.50
68719;DHT22;55696;52.138;5.444;2023-02-04T14:40:24;14.20;58.40
68719;DHT22;55696;52.138;5.444;2023-02-04T14:42:51;14.80;58.70
68719;DHT22;55696;52.138;5.444;2023-02-04T14:45:18;14.20;58.50
68719;DHT22;55696;52.138;5.444;2023-02-04T14:47:45;14.20;58.60
68719;DHT22;55696;52.138;5.444;2023-02-04T14:50:15;14.90;58.80
68719;DHT22;55696;52.138;5.444;2023-02-04T14:52:42;14.20;60.00
68719;DHT22;55696;52.138;5.444;2023-02-04T14:55:09;14.40;58.90
68719;DHT22;55696;52.138;5.444;2023-02-04T14:57:37;14.30;58.40
68719;DHT22;55696;52.138;5.444;2023-02-04T15:00:05;14.30;58.70
68719;DHT22;55696;52.138;5.444;2023-02-04T15:02:32;14.40;59.40
68719;DHT22;55696;52.138;5.444;2023-02-04T15:04:59;14.30;58.40
68719;DHT22;55696;52.138;5.444;2023-02-04T15:07:26;14.30;58.50
68719;DHT22;55696;52.138;5.444;2023-02-04T15:09:53;14.30;58.60
68719;DHT22;55696;52.138;5.444;2023-02-04T15:12:20;14.30;58.80
68719;DHT22;55696;52.138;5.444;2023-02-04T15:14:48;14.20;58.80
68719;DHT22;55696;52.138;5.444;2023-02-04T15:17:14;14.70;59.60
68719;DHT22;55696;52.138;5.444;2023-02-04T15:19:41;14.00;60.40
68719;DHT22;55696;52.138;5.444;2023-02-04T15:22:08;13.80;59.60
68719;DHT22;55696;52.138;5.444;2023-02-04T15:24:35;13.70;60.00
68719;DHT22;55696;52.138;5.444;2023-02-04T15:27:01;13.70;60.20
68719;DHT22;55696;52.138;5.444;2023-02-04T15:29:28;13.60;60.30
68719;DHT22;55696;52.138;5.444;2023-02-04T15:31:56;13.60;60.80
68719;DHT22;55696;52.138;5.444;2023-02-04T15:34:23;13.40;60.90
68719;DHT22;55696;52.138;5.444;2023-02-04T15:36:50;13.40;61.10
68719;DHT22;55696;52.138;5.444;2023-02-04T15:39:17;13.30;62.00
68719;DHT22;55696;52.138;5.444;2023-02-04T15:41:43;13.30;61.70
68719;DHT22;55696;52.138;5.444;2023-02-04T15:44:10;13.40;61.20
68719;DHT22;55696;52.138;5.444;2023-02-04T15:46:38;13.30;61.20
68719;DHT22;55696;52.138;5.444;2023-02-04T15:49:05;13.40;61.20
68719;DHT22;55696;52.138;5.444;2023-02-04T15:51:31;13.40;61.30
68719;DHT22;55696;52.138;5.444;2023-02-04T15:53:58;13.40;61.40
68719;DHT22;55696;52.138;5.444;2023-02-04T15:56:25;13.30;61.30